Time;durP1;ratioP1;P1;durP2;ratioP2;P2;SDS_P1;SDS_P2;PMS_P1;PMS_P2;Temp;Humidity;BMP_temperature;BMP_pressure;BME280_temperature;BME280_humidity;BME280_pressure;Samples;Min_cycle;Max_cycle;Signal;HPM_P1;HPM_P2
2023/12/03 00:00:25;;;;;;;90.85;53.78;;;;;;;4.90;100.00;98609.16;5091305;28;20474;-72
2023/12/03 00:02:50;;;;;;;97.32;53.80;;;;;;;4.74;100.00;98586.56;5091192;28;20032;-72
2023/12/03 00:05:16;;;;;;;81.18;50.42;;;;;;;4.82;100.00;98610.72;5091230;28;20126;-72
2023/12/03 00:07:42;;;;;;;83.30;52.08;;;;;;;4.98;100.00;98588.94;5091259;28;20032;-72
2023/12/03 00:10:08;;;;;;;87.03;52.60;;;;;;;4.88;100.00;98606.69;5091355;28;20024;-72
2023/12/03 00:12:34;;;;;;;88.28;52.78;;;;;;;5.00;100.00;98616.38;5075357;28;20109;-72
2023/12/03 00:14:59;;;;;;;91.45;58.50;;;;;;;4.87;100.00;98607.00;5091032;28;20028;-72
2023/12/03 00:17:25;;;;;;;88.13;53.08;;;;;;;5.04;100.00;98614.56;5109723;28;20028;-72
2023/12/03 00:19:50;;;;;;;85.13;53.72;;;;;;;5.18;100.00;98623.59;5093130;28;20472;-72
2023/12/03 00:22:16;;;;;;;88.20;52.70;;;;;;;5.14;100.00;98628.16;5089167;28;20031;-72
2023/12/03 00:24:41;;;;;;;95.88;54.28;;;;;;;5.22;100.00;98632.09;5101747;28;20032;-72
2023/12/03 00:27:07;;;;;;;80.57;54.10;;;;;;;5.12;100.00;98632.38;5111436;28;20106;-72
2023/12/03 00:29:32;;;;;;;88.13;51.05;;;;;;;5.16;100.00;98631.44;5084322;28;20020;-72
2023/12/03 00:31:58;;;;;;;81.65;51.90;;;;;;;5.27;100.00;98661.66;5094045;28;20402;-72
2023/12/03 00:34:23;;;;;;;85.00;52.75;;;;;;;5.13;100.00;98667.28;5095037;28;20491;-72
2023/12/03 00:36:48;;;;;;;89.25;54.13;;;;;;;5.25;100.00;98675.84;5094863;28;20514;-72
2023/12/03 00:39:14;;;;;;;83.72;51.35;;;;;;;5.25;100.00;98666.69;5103484;28;20034;-72
2023/12/03 00:41:39;;;;;;;86.38;53.70;;;;;;;5.25;100.00;98680.56;5092527;28;20055;-72
2023/12/03 00:44:05;;;;;;;98.50;56.38;;;;;;;5.30;100.00;98674.88;5094772;28;20442;-72
2023/12/03 00:46:30;;;;;;;86.90;53.58;;;;;;;5.32;100.00;98675.41;5095052;28;20435;-72
2023/12/03 00:48:56;;;;;;;99.20;56.03;;;;;;;5.51;100.00;98674.31;5096225;28;20046;-72
2023/12/03 00:51:21;;;;;;;84.57;54.58;;;;;;;5.56;100.00;98674.97;5096890;28;20032;-72
2023/12/03 00:53:47;;;;;;;84.95;54.80;;;;;;;5.55;100.00;98645.59;5113716;28;20055;-72
2023/12/03 00:56:12;;;;;;;89.85;55.33;;;;;;;5.51;100.00;98668.75;5076445;28;20096;-72
2023/12/03 00:58:38;;;;;;;91.05;54.97;;;;;;;5.52;100.00;98689.81;5096270;28;20016;-72
2023/12/03 01:01:04;;;;;;;89.45;55.85;;;;;;;5.50;100.00;98683.78;5114836;28;20541;-72
2023/12/03 01:03:30;;;;;;;94.32;56.40;;;;;;;5.46;100.00;98692.75;5098427;28;20407;-72
2023/12/03 01:05:57;;;;;;;102.13;60.92;;;;;;;5.53;100.00;98691.44;5095494;28;20031;-72
2023/12/03 01:08:22;;;;;;;98.38;61.85;;;;;;;5.50;100.00;98697.66;5094445;28;20031;-72
2023/12/03 01:10:48;;;;;;;102.53;62.50;;;;;;;5.46;100.00;98698.28;5094248;28;20616;-72
2023/12/03 01:13:13;;;;;;;95.20;55.88;;;;;;;5.50;100.00;98692.09;5113834;28;20027;-72
2023/12/03 01:15:39;;;;;;;84.68;51.78;;;;;;;5.51;100.00;98677.91;5096246;28;20027;-72
2023/12/03 01:18:04;;;;;;;83.03;52.42;;;;;;;5.59;100.00;98679.88;5096390;28;20035;-72
2023/12/03 01:20:30;;;;;;;93.65;54.20;;;;;;;5.62;100.00;98667.34;5114435;28;20058;-72
2023/12/03 01:22:55;;;;;;;85.53;53.60;;;;;;;5.72;100.00;98697.56;5114553;28;20023;-72
2023/12/03 01:25:21;;;;;;;93.80;54.50;;;;;;;5.67;100.00;98674.69;5114378;28;20055;-72
2023/12/03 01:27:46;;;;;;;74.47;48.72;;;;;;;5.68;100.00;98662.47;5096654;28;20106;-72
2023/12/03 01:30:12;;;;;;;83.95;53.58;;;;;;;4.91;100.00;98664.25;5094628;28;20027;-72
2023/12/03 01:32:39;;;;;;;88.43;54.22;;;;;;;5.13;100.00;98672.81;5096169;28;20469;-72
2023/12/03 01:35:05;;;;;;;74.35;49.17;;;;;;;5.37;100.00;98666.09;5094910;28;20085;-72
2023/12/03 01:37:30;;;;;;;80.10;50.30;;;;;;;5.57;100.00;98664.72;5095401;28;20035;-72
2023/12/03 01:39:56;;;;;;;75.93;46.00;;;;;;;5.68;100.00;98666.06;5114142;28;20400;-72
2023/12/03 01:42:23;;;;;;;88.55;50.22;;;;;;;5.66;100.00;98684.97;5112191;28;20497;-72
2023/12/03 01:44:48;;;;;;;78.20;49.00;;;;;;;5.68;100.00;98688.25;5095491;28;20103;-72
2023/12/03 01:47:14;;;;;;;76.18;46.75;;;;;;;5.36;100.00;98687.47;5114059;28;20077;-72
2023/12/03 01:49:40;;;;;;;72.88;43.75;;;;;;;5.50;100.00;98700.41;5113845;28;20384;-72
2023/12/03 01:52:06;;;;;;;71.95;42.88;;;;;;;5.13;100.00;98701.38;5095671;28;20057;-72
2023/12/03 01:54:36;;;;;;;62.30;38.67;;;;;;;5.09;100.00;98710.66;5113893;28;20414;-72
2023/12/03 01:57:02;;;;;;;60.38;37.85;;;;;;;4.78;100.00;98693.69;5114079;28;20023;-72
2023/12/03 01:59:27;;;;;;;61.22;37.92;;;;;;;4.77;100.00;98694.81;5111043;28;20024;-71
2023/12/03 02:01:53;;;;;;;59.17;37.35;;;;;;;4.83;100.00;98694.66;5095394;28;20548;-72
2023/12/03 02:04:18;;;;;;;54.75;35.65;;;;;;;4.97;100.00;98703.72;5095533;28;20031;-72
2023/12/03 02:06:44;;;;;;;54.42;33.90;;;;;;;4.83;100.00;98681.66;5080867;28;20055;-71
2023/12/03 02:09:10;;;;;;;59.03;34.15;;;;;;;4.90;100.00;98687.53;5084202;28;20034;-72
2023/12/03 02:11:35;;;;;;;51.92;31.95;;;;;;;4.73;100.00;98693.00;5112760;28;20031;-72
2023/12/03 02:14:02;;;;;;;65.88;38.10;;;;;;;4.80;100.00;98682.25;5113905;28;20102;-72
2023/12/03 02:16:30;;;;;;;60.70;36.15;;;;;;;4.97;100.00;98683.53;5095450;28;20031;-71
2023/12/03 02:18:55;;;;;;;52.80;33.65;;;;;;;5.18;100.00;98676.28;5093124;28;20050;-72
2023/12/03 02:21:21;;;;;;;51.78;33.70;;;;;;;5.10;100.00;98679.00;5092956;28;20016;-72
2023/12/03 02:23:47;;;;;;;51.35;32.85;;;;;;;5.05;100.00;98683.56;5092976;28;20024;-72
2023/12/03 02:26:13;;;;;;;51.65;32.53;;;;;;;5.16;100.00;98684.09;5092951;28;20464;-72
2023/12/03 02:28:38;;;;;;;48.33;30.60;;;;;;;4.90;100.00;98681.19;5074731;28;20024;-72
2023/12/03 02:31:04;;;;;;;49.70;32.42;;;;;;;4.88;100.00;98694.53;5092648;28;20046;-72
2023/12/03 02:33:30;;;;;;;54.75;33.28;;;;;;;4.78;100.00;98695.63;5092901;28;20048;-72
2023/12/03 02:35:55;;;;;;;56.22;31.15;;;;;;;4.91;100.00;98705.00;5095520;28;20032;-72
2023/12/03 02:38:20;;;;;;;54.75;31.00;;;;;;;4.77;100.00;98705.91;5092707;28;20024;-72
2023/12/03 02:40:46;;;;;;;53.35;32.22;;;;;;;4.88;100.00;98702.84;5074228;28;20043;-72
2023/12/03 02:43:11;;;;;;;48.03;30.65;;;;;;;4.76;100.00;98708.97;5074490;28;20043;-72
2023/12/03 02:45:37;;;;;;;56.15;33.25;;;;;;;4.76;100.00;98703.44;5092510;28;20035;-72
2023/12/03 02:48:02;;;;;;;52.63;30.70;;;;;;;4.85;100.00;98700.72;5092450;28;20081;-72
2023/12/03 02:50:28;;;;;;;45.83;29.48;;;;;;;4.90;100.00;98704.19;5102697;28;20475;-72
2023/12/03 02:52:53;;;;;;;49.50;30.88;;;;;;;4.91;100.00;98714.13;5094536;28;20031;-72
2023/12/03 02:55:19;;;;;;;51.72;29.83;;;;;;;4.95;100.00;98710.72;5111732;28;20041;-72
2023/12/03 02:57:44;;;;;;;55.03;33.75;;;;;;;4.64;100.00;98712.28;5112206;28;20032;-72
2023/12/03 03:00:10;;;;;;;56.90;33.33;;;;;;;4.78;100.00;98710.31;5112349;28;20024;-72
2023/12/03 03:02:37;;;;;;;49.83;32.63;;;;;;;5.01;100.00;98713.06;5094287;28;20476;-72
2023/12/03 03:05:06;;;;;;;54.92;32.53;;;;;;;5.08;100.00;98709.84;5086631;28;20427;-72
2023/12/03 03:07:31;;;;;;;52.50;32.97;;;;;;;5.22;100.00;98709.75;5092139;28;20062;-72
2023/12/03 03:09:56;;;;;;;72.90;39.80;;;;;;;5.23;100.00;98705.03;5092111;28;20061;-72
2023/12/03 03:12:22;;;;;;;63.35;35.72;;;;;;;4.84;100.00;98704.63;5092112;28;20104;-72
2023/12/03 03:14:47;;;;;;;68.30;38.00;;;;;;;4.90;100.00;98712.50;5096192;28;20031;-72
2023/12/03 03:17:13;;;;;;;61.42;33.22;;;;;;;5.16;100.00;98711.03;5091873;28;20111;-72
2023/12/03 03:19:42;;;;;;;56.58;35.30;;;;;;;4.90;100.00;98715.25;5092004;28;20061;-71
2023/12/03 03:22:07;;;;;;;52.08;32.22;;;;;;;4.90;100.00;98722.78;5091650;28;20404;-72
2023/12/03 03:24:33;;;;;;;55.05;29.00;;;;;;;5.03;100.00;98726.59;5092126;28;20027;-72
2023/12/03 03:26:58;;;;;;;57.15;27.75;;;;;;;5.02;100.00;98725.78;5080656;28;20495;-72
2023/12/03 03:29:25;;;;;;;41.13;27.58;;;;;;;4.92;100.00;98721.31;5093452;28;20090;-72
2023/12/03 03:31:50;;;;;;;44.00;28.10;;;;;;;4.83;100.00;98728.75;5091653;28;20031;-72
2023/12/03 03:34:16;;;;;;;49.63;29.58;;;;;;;5.01;100.00;98737.19;5073493;28;20489;-72
2023/12/03 03:36:41;;;;;;;43.50;26.45;;;;;;;4.96;100.00;98723.47;5091564;28;20023;-71
2023/12/03 03:39:06;;;;;;;44.42;27.92;;;;;;;5.12;100.00;98726.63;5089570;28;20027;-71
2023/12/03 03:41:32;;;;;;;42.88;25.88;;;;;;;5.31;100.00;98745.88;5089743;28;20044;-72
2023/12/03 03:43:57;;;;;;;36.50;24.23;;;;;;;5.16;100.00;98750.66;5091549;28;20024;-72
2023/12/03 03:46:23;;;;;;;45.50;26.42;;;;;;;5.19;100.00;98733.41;5077674;28;20028;-72
2023/12/03 03:48:48;;;;;;;38.53;24.02;;;;;;;5.16;100.00;98733.22;5069968;28;20028;-71
2023/12/03 03:51:14;;;;;;;38.53;25.17;;;;;;;4.94;100.00;98731.25;5071085;28;20528;-72
2023/12/03 03:53:39;;;;;;;39.35;24.70;;;;;;;4.85;100.00;98733.97;5071969;28;20519;-71
2023/12/03 03:56:09;;;;;;;41.28;25.85;;;;;;;4.88;100.00;98733.31;5073689;28;20404;-72
2023/12/03 03:58:36;;;;;;;56.63;28.77;;;;;;;4.87;100.00;98740.00;5071440;28;20386;-72
2023/12/03 04:01:07;;;;;;;60.80;32.03;;;;;;;4.90;100.00;98742.97;5071149;28;20063;-71
2023/12/03 04:03:33;;;;;;;49.47;29.75;;;;;;;4.90;100.00;98731.09;5070912;28;20029;-71
2023/12/03 04:06:05;;;;;;;43.83;26.27;;;;;;;4.86;100.00;98736.44;5069503;28;20028;-72
2023/12/03 04:08:31;;;;;;;44.97;28.17;;;;;;;4.95;100.00;98730.13;5076727;28;20515;-72
2023/12/03 04:10:57;;;;;;;42.40;27.50;;;;;;;4.95;100.00;98741.19;5084591;28;20033;-71
2023/12/03 04:13:24;;;;;;;53.65;30.45;;;;;;;5.06;100.00;98729.56;5070887;28;20078;-72
2023/12/03 04:15:49;;;;;;;46.90;29.73;;;;;;;5.02;100.00;98733.28;5069607;28;20071;-72
2023/12/03 04:18:14;;;;;;;45.08;29.23;;;;;;;5.04;100.00;98731.00;5070877;28;20060;-71
2023/12/03 04:20:40;;;;;;;43.90;28.35;;;;;;;4.86;100.00;98752.22;5075745;28;20027;-72
2023/12/03 04:23:05;;;;;;;52.95;31.83;;;;;;;4.88;100.00;98763.81;5091093;28;20032;-72
2023/12/03 04:25:31;;;;;;;53.72;34.20;;;;;;;4.82;100.00;98773.41;5091191;28;20032;-71
2023/12/03 04:27:57;;;;;;;55.50;30.20;;;;;;;4.92;100.00;98773.97;5075220;28;20066;-72
2023/12/03 04:30:22;;;;;;;46.15;28.80;;;;;;;4.68;100.00;98762.34;5085259;28;20032;-71
2023/12/03 04:32:48;;;;;;;47.75;29.00;;;;;;;4.71;100.00;98762.56;5086149;28;20040;-72
2023/12/03 04:35:14;;;;;;;41.17;26.98;;;;;;;4.95;100.00;98760.59;5070870;28;20029;-71
2023/12/03 04:37:40;;;;;;;48.45;30.02;;;;;;;4.95;100.00;98777.22;5086123;28;20516;-71
2023/12/03 04:40:06;;;;;;;47.72;31.13;;;;;;;4.80;100.00;98770.94;5089935;28;20031;-72
2023/12/03 04:42:32;;;;;;;44.22;27.65;;;;;;;4.80;100.00;98765.38;5107405;28;20050;-71
2023/12/03 04:44:57;;;;;;;44.53;25.45;;;;;;;4.90;100.00;98767.91;5095761;28;20032;-73
2023/12/03 04:47:22;;;;;;;42.35;27.38;;;;;;;4.84;100.00;98758.09;5092644;28;20051;-73
2023/12/03 04:49:48;;;;;;;47.92;28.05;;;;;;;5.00;100.00;98755.75;5092910;28;20506;-73
2023/12/03 04:52:13;;;;;;;55.88;32.58;;;;;;;4.91;100.00;98779.84;5111080;28;20031;-72
2023/12/03 04:54:39;;;;;;;52.20;29.20;;;;;;;4.94;100.00;98779.19;5111227;28;20058;-72
2023/12/03 04:57:04;;;;;;;42.05;27.67;;;;;;;4.65;100.00;98780.44;5101059;28;20066;-71
2023/12/03 04:59:30;;;;;;;48.42;30.00;;;;;;;4.78;100.00;98784.28;5090805;28;20462;-75
2023/12/03 05:01:56;;;;;;;43.78;28.13;;;;;;;4.95;100.00;98780.00;5090588;28;20489;-75
2023/12/03 05:04:23;;;;;;;48.85;29.08;;;;;;;5.00;100.00;98777.94;5090651;28;20419;-75
2023/12/03 05:06:49;;;;;;;45.55;28.13;;;;;;;4.85;100.00;98789.38;5072671;28;20020;-75
2023/12/03 05:09:15;;;;;;;47.35;28.23;;;;;;;5.17;100.00;98785.53;5072405;28;20112;-76
2023/12/03 05:11:41;;;;;;;41.42;25.92;;;;;;;5.21;100.00;98774.66;5072518;28;20412;-78
2023/12/03 05:14:08;;;;;;;39.67;24.70;;;;;;;5.05;100.00;98779.75;5072760;28;20031;-72
2023/12/03 05:16:34;;;;;;;38.85;23.88;;;;;;;5.18;100.00;98786.38;5081721;28;20113;-74
2023/12/03 05:18:59;;;;;;;38.88;23.20;;;;;;;5.03;100.00;98780.09;5096780;28;20066;-74
2023/12/03 05:21:24;;;;;;;52.53;29.00;;;;;;;5.17;100.00;98781.97;5094296;28;20028;-74
2023/12/03 05:23:50;;;;;;;54.63;32.30;;;;;;;5.32;100.00;98775.22;5094215;28;20027;-74
2023/12/03 05:26:15;;;;;;;66.85;38.33;;;;;;;5.34;100.00;98767.41;5094204;28;20055;-76
2023/12/03 05:28:41;;;;;;;60.67;37.17;;;;;;;5.44;100.00;98766.31;5093997;28;20423;-74
2023/12/03 05:31:07;;;;;;;66.57;34.88;;;;;;;5.54;100.00;98762.44;5094184;28;20028;-75
2023/12/03 05:33:32;;;;;;;60.20;33.90;;;;;;;5.60;100.00;98758.41;5096803;28;20093;-76
2023/12/03 05:35:58;;;;;;;51.42;28.92;;;;;;;5.65;100.00;98766.56;5103758;28;20024;-75
2023/12/03 05:38:23;;;;;;;38.05;24.13;;;;;;;5.72;100.00;98777.22;5103821;28;20022;-75
2023/12/03 05:40:49;;;;;;;43.85;26.00;;;;;;;5.61;100.00;98782.22;5080688;28;20024;-75
2023/12/03 05:43:15;;;;;;;45.95;26.65;;;;;;;5.68;100.00;98788.16;5075690;28;20023;-75
2023/12/03 05:45:40;;;;;;;31.73;21.58;;;;;;;5.57;100.00;98773.72;5093801;28;20028;-75
2023/12/03 05:48:06;;;;;;;40.58;25.58;;;;;;;5.73;100.00;98784.38;5097688;28;20030;-74
2023/12/03 05:50:32;;;;;;;57.50;34.05;;;;;;;5.70;100.00;98796.97;5114085;28;20012;-73
2023/12/03 05:52:58;;;;;;;52.20;26.38;;;;;;;5.51;100.00;98799.13;5098249;28;20521;-74
2023/12/03 05:55:23;;;;;;;44.95;26.25;;;;;;;5.61;100.00;98810.81;5093671;28;20054;-73
2023/12/03 05:57:49;;;;;;;45.13;27.90;;;;;;;5.56;100.00;98802.59;5103065;28;20061;-74
2023/12/03 06:00:14;;;;;;;51.45;32.20;;;;;;;5.37;100.00;98813.91;5093400;28;20069;-74
2023/12/03 06:02:40;;;;;;;53.38;32.33;;;;;;;5.19;100.00;98822.13;5093967;28;20095;-73
2023/12/03 06:05:06;;;;;;;51.50;32.75;;;;;;;5.39;100.00;98811.63;5089782;28;20023;-72
2023/12/03 06:07:32;;;;;;;50.38;31.85;;;;;;;5.51;100.00;98799.13;5101442;28;20027;-75
2023/12/03 06:09:58;;;;;;;54.60;33.75;;;;;;;5.41;100.00;98798.25;5092030;28;20107;-77
2023/12/03 06:12:23;;;;;;;57.25;32.85;;;;;;;5.48;100.00;98818.06;5106125;28;20031;-76
2023/12/03 06:14:49;;;;;;;56.53;34.75;;;;;;;5.18;100.00;98817.69;5077088;28;20032;-76
2023/12/03 06:17:14;;;;;;;62.53;38.22;;;;;;;4.83;100.00;98819.38;5099028;28;20057;-76
2023/12/03 06:19:40;;;;;;;57.83;35.05;;;;;;;4.92;100.00;98817.50;5089095;28;20056;-77
2023/12/03 06:22:05;;;;;;;48.78;29.67;;;;;;;5.00;100.00;98835.34;5074949;28;20081;-75
2023/12/03 06:24:30;;;;;;;60.58;36.35;;;;;;;4.99;100.00;98839.25;5081099;28;20480;-76
2023/12/03 06:26:56;;;;;;;65.18;35.72;;;;;;;5.10;100.00;98840.63;5087525;28;20075;-76
2023/12/03 06:29:21;;;;;;;48.30;29.05;;;;;;;4.96;100.00;98845.41;5072646;28;20412;-76
2023/12/03 06:31:48;;;;;;;47.40;26.88;;;;;;;4.95;100.00;98849.28;5092209;28;20069;-75
2023/12/03 06:34:13;;;;;;;44.33;25.17;;;;;;;4.98;100.00;98843.16;5075119;28;20027;-74
2023/12/03 06:36:38;;;;;;;41.40;20.52;;;;;;;4.94;100.00;98845.72;5077132;28;20027;-74
2023/12/03 06:39:04;;;;;;;38.85;22.55;;;;;;;5.09;100.00;98854.81;5090690;28;20024;-75
2023/12/03 06:41:29;;;;;;;52.63;27.58;;;;;;;5.20;100.00;98864.50;5075769;28;20055;-74
2023/12/03 06:43:55;;;;;;;61.80;31.63;;;;;;;5.30;100.00;98857.91;5092558;28;20032;-73
2023/12/03 06:46:20;;;;;;;71.13;33.70;;;;;;;5.47;100.00;98855.25;5100521;28;20031;-71
2023/12/03 06:48:46;;;;;;;51.75;30.05;;;;;;;5.60;100.00;98842.44;5111230;28;20500;-73
2023/12/03 06:51:11;;;;;;;75.75;40.00;;;;;;;5.61;100.00;98855.19;5110681;28;20027;-74
2023/12/03 06:53:37;;;;;;;49.40;26.90;;;;;;;5.66;100.00;98862.53;5084884;28;20024;-70
2023/12/03 06:56:04;;;;;;;43.60;24.75;;;;;;;5.78;100.00;98869.47;5091875;28;20019;-74
2023/12/03 06:58:32;;;;;;;53.63;29.27;;;;;;;5.96;100.00;98865.66;5077895;28;20035;-74
2023/12/03 07:00:58;;;;;;;52.95;28.95;;;;;;;5.99;100.00;98870.56;5081767;28;20404;-75
2023/12/03 07:03:23;;;;;;;37.45;24.20;;;;;;;5.90;100.00;98875.25;5090006;28;20084;-70
2023/12/03 07:05:48;;;;;;;88.28;51.28;;;;;;;5.95;100.00;98877.91;5107438;28;20083;-72
2023/12/03 07:08:14;;;;;;;70.35;42.20;;;;;;;6.09;100.00;98879.81;5093307;28;20030;-72
2023/12/03 07:10:39;;;;;;;58.60;36.80;;;;;;;6.10;100.00;98884.22;5080603;28;20023;-72
2023/12/03 07:13:05;;;;;;;57.60;33.25;;;;;;;6.13;100.00;98886.34;5105713;28;20058;-72
2023/12/03 07:15:30;;;;;;;45.80;30.55;;;;;;;5.79;100.00;98876.66;5101180;28;20035;-70
2023/12/03 07:17:57;;;;;;;75.13;45.30;;;;;;;5.65;100.00;98890.63;5093637;28;20556;-73
2023/12/03 07:20:23;;;;;;;96.22;58.40;;;;;;;5.79;100.00;98893.31;5110956;28;20502;-74
2023/12/03 07:22:48;;;;;;;123.20;73.47;;;;;;;5.92;100.00;98894.38;5112232;28;20032;-74
2023/12/03 07:25:14;;;;;;;85.80;54.05;;;;;;;5.93;100.00;98888.53;5093952;28;20066;-74
2023/12/03 07:27:39;;;;;;;76.28;45.42;;;;;;;5.82;100.00;98884.38;5093931;28;20032;-74
2023/12/03 07:30:06;;;;;;;77.60;48.72;;;;;;;5.64;100.00;98873.16;5112086;28;20027;-74
2023/12/03 07:32:31;;;;;;;85.93;53.67;;;;;;;5.77;100.00;98882.53;5074564;28;20043;-74
2023/12/03 07:34:57;;;;;;;103.13;56.88;;;;;;;5.83;100.00;98877.69;5091623;28;20415;-74
2023/12/03 07:37:22;;;;;;;85.72;52.80;;;;;;;5.94;100.00;98892.09;5091693;28;20027;-74
2023/12/03 07:39:48;;;;;;;69.20;40.38;;;;;;;6.09;100.00;98883.38;5091379;28;20028;-74
2023/12/03 07:42:14;;;;;;;65.15;37.63;;;;;;;6.12;100.00;98893.03;5090936;28;20120;-74
2023/12/03 07:44:39;;;;;;;73.93;42.65;;;;;;;6.32;100.00;98895.25;5073503;28;20028;-74
2023/12/03 07:47:05;;;;;;;91.38;57.40;;;;;;;6.48;100.00;98905.94;5091150;28;20024;-74
2023/12/03 07:49:30;;;;;;;71.70;44.53;;;;;;;6.52;100.00;98901.38;5090065;28;20024;-74
2023/12/03 07:51:56;;;;;;;82.93;45.75;;;;;;;6.68;100.00;98921.19;5091698;28;20027;-74
2023/12/03 07:54:21;;;;;;;77.45;47.92;;;;;;;6.85;100.00;98923.19;5056455;28;20090;-74
2023/12/03 07:56:47;;;;;;;80.13;48.30;;;;;;;6.83;100.00;98931.06;5090041;28;20028;-75
2023/12/03 07:59:12;;;;;;;71.00;38.75;;;;;;;6.87;100.00;98931.22;5091388;28;20070;-74
2023/12/03 08:01:38;;;;;;;60.63;35.25;;;;;;;7.02;100.00;98929.97;5101166;28;20095;-74
2023/12/03 08:04:06;;;;;;;55.78;31.73;;;;;;;7.16;100.00;98922.28;5101163;28;20035;-75
2023/12/03 08:06:32;;;;;;;68.60;40.05;;;;;;;7.24;100.00;98919.81;5091216;28;20063;-74
2023/12/03 08:08:59;;;;;;;90.30;45.95;;;;;;;7.30;100.00;98932.44;5073200;28;20492;-74
2023/12/03 08:11:24;;;;;;;58.67;34.63;;;;;;;7.37;100.00;98935.56;5091233;28;20055;-74
2023/12/03 08:13:50;;;;;;;50.28;29.00;;;;;;;7.44;100.00;98938.66;5089958;28;20051;-74
2023/12/03 08:16:16;;;;;;;30.00;21.55;;;;;;;7.54;100.00;98956.19;5091133;28;20032;-75
2023/12/03 08:18:42;;;;;;;34.80;20.33;;;;;;;7.65;100.00;98957.50;5089905;28;20412;-75
2023/12/03 08:21:09;;;;;;;40.70;28.40;;;;;;;7.63;100.00;98943.09;5089468;28;20118;-75
2023/12/03 08:23:35;;;;;;;45.50;26.05;;;;;;;7.82;100.00;98958.63;5091041;28;20077;-75
2023/12/03 08:26:03;;;;;;;88.53;51.40;;;;;;;7.75;100.00;98944.41;5090988;28;20035;-75
2023/12/03 08:28:28;;;;;;;58.78;36.42;;;;;;;7.88;100.00;98940.59;5089795;28;20514;-75
2023/12/03 08:30:54;;;;;;;51.00;30.23;;;;;;;7.94;100.00;98950.41;5094384;28;20032;-74
2023/12/03 08:33:19;;;;;;;85.75;53.58;;;;;;;7.95;100.00;98951.25;5110487;28;20073;-73
2023/12/03 08:35:45;;;;;;;63.17;41.38;;;;;;;7.99;100.00;98947.47;5091069;28;20466;-74
2023/12/03 08:38:10;;;;;;;86.15;43.35;;;;;;;8.10;100.00;98955.47;5091132;28;20024;-74
2023/12/03 08:40:37;;;;;;;77.53;50.28;;;;;;;8.14;100.00;98939.72;5090382;28;20104;-73
2023/12/03 08:43:02;;;;;;;80.70;45.80;;;;;;;8.14;100.00;98946.13;5091000;28;20032;-74
2023/12/03 08:45:29;;;;;;;90.55;59.53;;;;;;;8.26;100.00;98952.97;5091437;28;20035;-73
2023/12/03 08:47:55;;;;;;;81.35;50.00;;;;;;;8.29;100.00;98952.31;5091083;28;20024;-75
2023/12/03 08:50:27;;;;;;;71.82;45.67;;;;;;;8.41;100.00;98957.19;5097042;28;20035;-74
2023/12/03 08:52:52;;;;;;;74.13;41.83;;;;;;;8.41;100.00;98948.81;5073868;28;20515;-74
2023/12/03 08:55:18;;;;;;;72.15;38.55;;;;;;;8.32;100.00;98960.00;5076641;28;20059;-75
2023/12/03 08:57:43;;;;;;;62.75;38.88;;;;;;;8.52;100.00;98958.50;5094944;28;20028;-74
2023/12/03 09:00:10;;;;;;;75.00;47.15;;;;;;;8.56;100.00;98953.88;5094857;28;20028;-74
2023/12/03 09:02:36;;;;;;;82.70;53.85;;;;;;;8.63;100.00;98946.97;5111936;28;20560;-76
2023/12/03 09:05:01;;;;;;;89.60;55.22;;;;;;;8.81;100.00;98942.13;5116227;28;20040;-77
2023/12/03 09:07:30;;;;;;;74.93;48.67;;;;;;;8.81;100.00;98948.53;5093809;28;20193;-75
2023/12/03 09:09:57;;;;;;;78.97;50.83;;;;;;;8.78;100.00;98942.81;5095299;28;20026;-76
2023/12/03 09:12:23;;;;;;;77.15;48.00;;;;;;;8.89;100.00;98932.06;5095612;28;20107;-75
2023/12/03 09:14:48;;;;;;;69.32;43.47;;;;;;;8.95;100.00;98937.13;5094788;28;20027;-76
2023/12/03 09:17:14;;;;;;;75.80;42.83;;;;;;;9.06;100.00;98925.56;5073616;28;20042;-75
2023/12/03 09:19:39;;;;;;;52.30;33.17;;;;;;;9.10;100.00;98932.94;5091827;28;20548;-76
2023/12/03 09:22:05;;;;;;;56.00;35.38;;;;;;;9.21;100.00;98935.34;5098578;28;20411;-75
2023/12/03 09:24:30;;;;;;;49.80;28.98;;;;;;;9.36;100.00;98926.34;5093729;28;20122;-73
2023/12/03 09:26:56;;;;;;;56.85;26.70;;;;;;;9.46;100.00;98935.47;5112255;28;20065;-73
2023/12/03 09:29:22;;;;;;;49.08;26.42;;;;;;;9.48;100.00;98947.94;5093563;28;20211;-73
2023/12/03 09:31:47;;;;;;;52.22;30.92;;;;;;;9.52;100.00;98942.47;5083386;28;20032;-73
2023/12/03 09:34:13;;;;;;;58.15;31.77;;;;;;;9.62;100.00;98942.06;5076717;28;20039;-74
2023/12/03 09:36:38;;;;;;;66.22;37.25;;;;;;;9.64;100.00;98945.31;5103238;28;20114;-77
2023/12/03 09:39:04;;;;;;;62.38;34.70;;;;;;;9.82;100.00;98939.59;5082637;28;20023;-71
2023/12/03 09:41:33;;;;;;;62.72;33.67;;;;;;;9.96;100.00;98942.91;5106183;28;20047;-70
2023/12/03 09:47:26;;;;;;;82.40;36.70;;;;;;;10.13;100.00;98927.13;5099370;28;20043;-73
2023/12/03 09:49:54;;;;;;;77.43;39.17;;;;;;;10.15;100.00;98919.22;5109316;28;20411;-72
2023/12/03 09:52:21;;;;;;;140.68;59.28;;;;;;;10.27;100.00;98928.81;5110147;28;20036;-71
2023/12/03 09:54:48;;;;;;;197.05;78.88;;;;;;;10.42;100.00;98930.13;5099943;28;20553;-72
2023/12/03 09:57:14;;;;;;;123.70;51.13;;;;;;;10.50;100.00;98929.19;5087833;28;20122;-73
2023/12/03 09:59:46;;;;;;;245.68;93.72;;;;;;;10.64;100.00;98937.25;5093674;28;20028;-73
2023/12/03 10:02:13;;;;;;;109.88;45.67;;;;;;;10.77;100.00;98941.69;5106262;28;20023;-75
2023/12/03 10:04:39;;;;;;;57.20;27.08;;;;;;;10.89;100.00;98937.28;5110936;28;20023;-71
2023/12/03 10:07:06;;;;;;;752.20;334.33;;;;;;;10.98;100.00;98937.13;5109503;28;20020;-71
2023/12/03 10:09:32;;;;;;;406.15;171.45;;;;;;;11.03;100.00;98937.72;5094170;28;20415;-71
2023/12/03 10:12:03;;;;;;;131.27;59.15;;;;;;;11.09;100.00;98927.09;5093904;28;20039;-74
2023/12/03 10:14:28;;;;;;;137.85;69.47;;;;;;;11.22;100.00;98925.91;5112592;28;20560;-73
2023/12/03 10:16:54;;;;;;;55.53;27.65;;;;;;;11.29;100.00;98930.13;5092812;28;20051;-73
2023/12/03 10:19:28;;;;;;;77.45;50.67;;;;;;;11.38;100.00;98934.41;5111067;28;20107;-74
2023/12/03 10:21:55;;;;;;;66.70;44.50;;;;;;;11.43;100.00;98933.34;5083809;28;20080;-74
2023/12/03 10:24:21;;;;;;;50.53;29.55;;;;;;;11.54;100.00;98924.44;5111778;28;20032;-73
2023/12/03 10:26:59;;;;;;;77.18;50.95;;;;;;;11.61;100.00;98931.06;5093231;28;20031;-73
2023/12/03 10:29:25;;;;;;;70.00;45.50;;;;;;;11.65;100.00;98926.38;5092174;28;20058;-74
2023/12/03 10:31:51;;;;;;;70.72;43.17;;;;;;;11.68;100.00;98926.84;5094781;28;20055;-73
2023/12/03 10:34:17;;;;;;;77.25;46.22;;;;;;;11.74;100.00;98929.03;5109027;28;20066;-74
2023/12/03 10:36:43;;;;;;;101.78;60.85;;;;;;;11.83;100.00;98931.69;5113189;28;20360;-73
2023/12/03 10:39:09;;;;;;;112.85;70.47;;;;;;;11.87;100.00;98921.41;5110652;28;20054;-73
2023/12/03 10:41:35;;;;;;;72.38;41.63;;;;;;;11.97;100.00;98919.25;5108164;28;20042;-73
2023/12/03 10:44:02;;;;;;;62.78;40.55;;;;;;;12.01;100.00;98914.56;5107087;28;20057;-73
2023/12/03 10:46:27;;;;;;;75.85;43.47;;;;;;;12.20;100.00;98916.69;5103615;28;20134;-73
2023/12/03 10:48:53;;;;;;;75.65;38.55;;;;;;;12.24;100.00;98911.19;5081233;28;20110;-73
2023/12/03 10:51:19;;;;;;;43.75;24.63;;;;;;;12.32;100.00;98913.00;5108439;28;20016;-73
2023/12/03 10:53:45;;;;;;;38.05;20.00;;;;;;;12.40;100.00;98914.00;5092761;28;20035;-73
2023/12/03 10:56:10;;;;;;;112.05;61.85;;;;;;;12.47;100.00;98903.78;5076931;28;20028;-72
2023/12/03 10:58:41;;;;;;;98.22;59.00;;;;;;;12.58;100.00;98914.47;5073929;28;20039;-73
2023/12/03 11:01:24;;;;;;;120.47;64.63;;;;;;;12.60;100.00;98918.53;5095982;28;20020;-73
2023/12/03 11:04:17;;;;;;;97.40;58.50;;;;;;;12.69;100.00;98915.56;5088895;28;20941;-75
2023/12/03 11:06:46;;;;;;;39.47;23.13;;;;;;;12.81;100.00;98923.03;5052418;28;20123;-74
2023/12/03 11:09:12;;;;;;;183.20;92.45;;;;;;;12.94;100.00;98931.34;5088432;28;20028;-75
2023/12/03 11:11:38;;;;;;;127.60;62.00;;;;;;;12.97;100.00;98917.41;5070533;28;20037;-75